createdAt,value
2018-05-18T00:01:57.605Z,23.57
2018-05-18T00:04:25.899Z,19.23
2018-05-18T00:06:53.469Z,21.73
2018-05-18T00:09:21.021Z,24.80
2018-05-18T00:11:48.544Z,26.57
2018-05-18T00:14:16.148Z,20.07
2018-05-18T00:16:43.716Z,19.73
2018-05-18T00:19:11.239Z,21.90
2018-05-18T00:21:39.641Z,23.77
2018-05-18T00:24:07.159Z,23.93
2018-05-18T00:26:34.679Z,21.60
2018-05-18T00:29:02.209Z,23.10
2018-05-18T00:31:29.727Z,19.33
2018-05-18T00:33:58.751Z,24.60
2018-05-18T00:36:27.050Z,21.83
2018-05-18T00:38:54.560Z,25.33
2018-05-18T00:41:22.064Z,23.13
2018-05-18T00:43:49.626Z,22.43
2018-05-18T00:46:17.168Z,24.03
2018-05-18T00:48:45.437Z,22.73
2018-05-18T00:51:13.845Z,23.13
2018-05-18T00:53:41.398Z,21.87
2018-05-18T00:56:08.912Z,20.57
2018-05-18T00:58:36.430Z,19.83
2018-05-18T01:01:03.960Z,20.90
2018-05-18T01:03:32.256Z,18.33
2018-05-18T01:05:59.828Z,22.40
2018-05-18T01:08:27.390Z,17.73
2018-05-18T01:10:54.945Z,20.63
2018-05-18T01:13:22.480Z,22.93
2018-05-18T01:15:50.831Z,20.90
2018-05-18T01:18:18.302Z,16.30
2018-05-18T01:20:45.896Z,20.93
2018-05-18T01:23:13.414Z,22.00
2018-05-18T01:25:40.931Z,22.70
2018-05-18T01:28:08.450Z,22.13
2018-05-18T01:30:36.730Z,23.07
2018-05-18T01:33:05.028Z,23.37
2018-05-18T01:35:32.550Z,23.33
2018-05-18T01:38:01.579Z,19.57
2018-05-18T01:40:29.096Z,22.30
2018-05-18T01:42:56.622Z,21.60
2018-05-18T01:45:24.142Z,29.10
2018-05-18T01:47:52.435Z,17.70
2018-05-18T01:50:19.960Z,25.80
2018-05-18T01:52:47.485Z,24.87
2018-05-18T01:55:14.996Z,26.43
2018-05-18T01:57:43.409Z,23.40
2018-05-18T02:00:10.912Z,19.50
2018-05-18T02:02:38.425Z,20.33
2018-05-18T02:05:05.983Z,17.67
2018-05-18T02:07:33.511Z,20.40
2018-05-18T02:10:01.822Z,23.93
2018-05-18T02:12:29.378Z,20.40
2018-05-18T02:14:56.887Z,18.80
2018-05-18T02:17:24.412Z,21.50
2018-05-18T02:19:51.946Z,20.83
2018-05-18T02:22:19.467Z,22.93
2018-05-18T02:24:46.985Z,18.83
2018-05-18T02:27:14.631Z,19.93
2018-05-18T02:29:42.147Z,17.57
2018-05-18T02:32:09.667Z,22.47
2018-05-18T02:34:37.204Z,22.60
2018-05-18T02:37:04.716Z,22.57
2018-05-18T02:39:32.338Z,21.87
2018-05-18T02:41:59.867Z,19.70
2018-05-18T02:44:28.173Z,22.50
2018-05-18T02:46:55.721Z,19.20
2018-05-18T02:49:23.281Z,16.57
2018-05-18T02:51:50.795Z,16.37
2018-05-18T02:54:18.310Z,20.63
2018-05-18T02:56:45.862Z,21.07
2018-05-18T02:59:13.428Z,17.70
2018-05-18T03:01:40.943Z,21.50
2018-05-18T03:04:08.971Z,22.27
2018-05-18T03:06:37.313Z,24.10
2018-05-18T03:09:05.601Z,16.30
2018-05-18T03:11:33.175Z,20.33
2018-05-18T03:14:00.691Z,23.30
2018-05-18T03:16:28.197Z,19.43
2018-05-18T03:18:55.731Z,19.37
2018-05-18T03:21:24.013Z,17.70
2018-05-18T03:23:51.535Z,19.67
2018-05-18T03:26:19.060Z,28.60
2018-05-18T03:28:46.571Z,16.67
2018-05-18T03:31:14.863Z,25.33
2018-05-18T03:33:43.158Z,23.43
2018-05-18T03:36:10.666Z,15.10
2018-05-18T03:38:38.186Z,22.27
2018-05-18T03:41:05.816Z,17.30
2018-05-18T03:43:34.104Z,18.90
2018-05-18T03:46:01.627Z,18.13
2018-05-18T03:48:29.242Z,22.67
2018-05-18T03:50:56.796Z,17.57
2018-05-18T03:53:24.310Z,20.43
2018-05-18T03:55:51.840Z,21.77
2018-05-18T03:58:19.383Z,19.30
2018-05-18T04:00:46.902Z,25.20
2018-05-18T04:03:27.034Z,17.93
2018-05-18T04:06:06.532Z,15.90
2018-05-18T04:08:40.024Z,19.53
2018-05-18T04:11:07.540Z,21.93
2018-05-18T04:13:35.155Z,17.03
2018-05-18T04:16:02.693Z,19.77
2018-05-18T04:18:31.008Z,19.80
2018-05-18T04:20:58.526Z,17.43
2018-05-18T04:23:26.961Z,20.13
2018-05-18T04:25:54.480Z,17.07
2018-05-18T04:28:22.003Z,22.93
2018-05-18T04:30:49.614Z,20.70
2018-05-18T04:33:17.161Z,18.03
2018-05-18T04:35:44.667Z,24.47
2018-05-18T04:38:12.194Z,22.00
2018-05-18T04:40:39.708Z,21.73
2018-05-18T04:43:07.322Z,21.23
2018-05-18T04:45:34.866Z,18.93
2018-05-18T04:48:02.378Z,18.47
2018-05-18T04:50:29.897Z,22.07
2018-05-18T04:52:57.442Z,21.87
2018-05-18T04:55:25.004Z,21.53
2018-05-18T04:57:52.572Z,17.90
2018-05-18T05:00:20.128Z,24.70
2018-05-18T05:02:47.652Z,21.10
2018-05-18T05:05:15.959Z,22.87
2018-05-18T05:07:43.487Z,24.57
2018-05-18T05:10:11.016Z,23.90
2018-05-18T05:12:38.546Z,22.17
2018-05-18T05:15:06.081Z,28.13
2018-05-18T05:17:34.468Z,25.93
2018-05-18T05:20:02.014Z,27.33
2018-05-18T05:22:30.297Z,28.70
2018-05-18T05:24:58.569Z,20.90
2018-05-18T05:27:26.844Z,25.20
2018-05-18T05:29:55.156Z,20.63
2018-05-18T05:32:22.669Z,20.90
2018-05-18T05:34:50.197Z,20.83
2018-05-18T05:37:17.853Z,23.97
2018-05-18T05:39:45.374Z,26.03
2018-05-18T05:42:13.665Z,19.97
2018-05-18T05:44:41.203Z,26.00
2018-05-18T05:47:09.611Z,25.00
2018-05-18T05:49:37.131Z,21.93
2018-05-18T05:52:04.658Z,22.80
2018-05-18T05:54:32.189Z,18.57
2018-05-18T05:56:59.712Z,22.17
2018-05-18T05:59:28.004Z,19.27
2018-05-18T06:01:56.297Z,20.57
2018-05-18T06:04:23.819Z,24.40
2018-05-18T06:06:51.345Z,21.00
2018-05-18T06:09:18.855Z,24.93
2018-05-18T06:11:47.154Z,23.33
2018-05-18T06:14:14.672Z,26.67
2018-05-18T06:16:42.181Z,26.67
2018-05-18T06:19:09.737Z,26.73
2018-05-18T06:21:37.269Z,25.73
2018-05-18T06:24:05.549Z,20.43
2018-05-18T06:26:33.834Z,22.53
2018-05-18T06:29:02.334Z,25.20
2018-05-18T06:31:29.858Z,22.57
2018-05-18T06:33:58.174Z,20.23
2018-05-18T06:36:25.730Z,21.23
2018-05-18T06:38:53.252Z,18.53
2018-05-18T06:41:21.596Z,21.57
2018-05-18T06:43:49.138Z,18.87
2018-05-18T06:46:16.655Z,18.70
2018-05-18T06:48:46.717Z,16.33
2018-05-18T06:51:14.792Z,15.43
2018-05-18T06:53:42.310Z,18.40
2018-05-18T06:56:10.598Z,19.43
2018-05-18T06:58:38.243Z,18.80
2018-05-18T07:01:05.721Z,17.73
2018-05-18T07:03:33.245Z,21.37
2018-05-18T07:06:00.784Z,18.63
2018-05-18T07:08:28.317Z,19.27
2018-05-18T07:10:55.855Z,18.10
2018-05-18T07:13:23.383Z,19.07
2018-05-18T07:15:51.036Z,20.47
2018-05-18T07:18:19.336Z,21.60
2018-05-18T07:20:47.636Z,15.23
2018-05-18T07:23:15.168Z,23.30
2018-05-18T07:25:42.682Z,19.90
2018-05-18T07:28:10.212Z,18.53
2018-05-18T07:30:38.507Z,23.97
2018-05-18T07:33:06.030Z,19.10
2018-05-18T07:35:34.344Z,18.03
2018-05-18T07:38:01.888Z,17.43
2018-05-18T07:40:29.409Z,15.67
2018-05-18T07:42:56.926Z,20.17
2018-05-18T07:45:24.454Z,19.23
2018-05-18T07:47:52.856Z,19.63
2018-05-18T07:50:20.402Z,16.00
2018-05-18T07:52:48.728Z,17.00
2018-05-18T07:55:16.257Z,16.93
2018-05-18T07:57:43.790Z,21.13
2018-05-18T08:00:12.064Z,18.40
2018-05-18T08:02:40.351Z,15.63
2018-05-18T08:05:08.649Z,21.67
2018-05-18T08:07:36.171Z,17.37
2018-05-18T08:10:04.467Z,18.63
2018-05-18T08:12:32.769Z,22.23
2018-05-18T08:15:00.322Z,16.33
2018-05-18T08:17:27.858Z,18.97
2018-05-18T08:19:56.265Z,14.60
2018-05-18T08:22:23.779Z,24.50
2018-05-18T08:24:51.295Z,17.80
2018-05-18T08:27:23.770Z,22.47
2018-05-18T08:29:51.291Z,18.07
2018-05-18T08:32:19.584Z,22.87
2018-05-18T08:34:47.152Z,18.30
2018-05-18T08:37:14.901Z,18.93
2018-05-18T08:39:42.431Z,23.77
2018-05-18T08:42:09.969Z,25.10
2018-05-18T08:44:37.487Z,18.10
2018-05-18T08:47:05.001Z,17.40
2018-05-18T08:49:32.542Z,22.20
2018-05-18T08:52:00.061Z,15.60
2018-05-18T08:54:27.633Z,17.37
2018-05-18T08:56:55.176Z,15.60
2018-05-18T08:59:23.467Z,17.90
2018-05-18T09:01:50.997Z,18.07
2018-05-18T09:04:19.317Z,18.97
2018-05-18T09:06:46.871Z,20.27
2018-05-18T09:09:14.481Z,20.70
2018-05-18T09:11:42.061Z,23.07
2018-05-18T09:14:10.357Z,17.63
2018-05-18T09:16:37.893Z,19.67
2018-05-18T09:19:06.189Z,20.70
2018-05-18T09:21:34.490Z,23.97
2018-05-18T09:24:02.156Z,22.67
2018-05-18T09:26:30.682Z,19.80
2018-05-18T09:28:58.185Z,20.93
2018-05-18T09:31:25.726Z,20.60
2018-05-18T09:33:54.136Z,17.10
2018-05-18T09:36:21.669Z,20.57
2018-05-18T09:38:49.255Z,18.00
2018-05-18T09:41:16.806Z,18.33
2018-05-18T09:43:44.358Z,16.20
2018-05-18T09:46:11.889Z,15.90
2018-05-18T09:48:40.197Z,17.33
2018-05-18T09:51:07.718Z,16.97
2018-05-18T09:53:35.250Z,14.20
2018-05-18T09:56:02.876Z,22.83
2018-05-18T09:58:30.409Z,18.20
2018-05-18T10:00:58.724Z,17.50
2018-05-18T10:03:26.268Z,15.67
2018-05-18T10:05:53.797Z,14.50
2018-05-18T10:08:21.408Z,15.67
2018-05-18T10:10:48.959Z,17.90
2018-05-18T10:13:16.482Z,19.37
2018-05-18T10:15:44.114Z,16.23
2018-05-18T10:18:11.657Z,17.50
2018-05-18T10:20:39.178Z,15.57
2018-05-18T10:23:07.467Z,19.00
2018-05-18T10:25:34.999Z,15.13
2018-05-18T10:28:02.519Z,19.37
2018-05-18T10:30:30.064Z,13.97
2018-05-18T10:32:57.596Z,17.50
2018-05-18T10:35:25.897Z,15.90
2018-05-18T10:37:53.427Z,16.10
2018-05-18T10:40:21.733Z,16.27
2018-05-18T10:42:49.271Z,16.20
2018-05-18T10:45:17.660Z,20.93
2018-05-18T10:47:45.194Z,15.43
2018-05-18T10:50:12.745Z,19.20
2018-05-18T10:52:41.061Z,17.97
2018-05-18T10:55:08.641Z,20.17
2018-05-18T10:57:36.207Z,14.27
2018-05-18T11:00:03.762Z,18.27
2018-05-18T11:02:31.292Z,14.00
2018-05-18T11:04:59.581Z,16.97
2018-05-18T11:07:27.107Z,16.70
2018-05-18T11:09:54.652Z,11.80
2018-05-18T11:12:22.193Z,13.33
2018-05-18T11:14:49.714Z,12.00
2018-05-18T11:17:17.240Z,19.63
2018-05-18T11:19:44.753Z,15.00
2018-05-18T11:22:12.313Z,13.67
2018-05-18T11:24:39.843Z,15.67
2018-05-18T11:27:08.138Z,16.07
2018-05-18T11:29:35.704Z,15.57
2018-05-18T11:32:03.236Z,18.80
2018-05-18T11:34:31.532Z,10.70
2018-05-18T11:36:59.064Z,9.57
2018-05-18T11:39:27.370Z,14.50
2018-05-18T11:41:54.884Z,15.50
2018-05-18T11:44:22.505Z,11.93
2018-05-18T11:46:50.070Z,19.70
2018-05-18T11:49:17.593Z,11.63
2018-05-18T11:51:45.878Z,12.27
2018-05-18T11:54:14.284Z,16.43
2018-05-18T11:56:41.816Z,13.73
2018-05-18T11:59:10.114Z,14.03
2018-05-18T12:01:37.657Z,15.47
2018-05-18T12:04:06.051Z,11.53
2018-05-18T12:06:33.565Z,14.30
2018-05-18T12:09:02.609Z,13.37
2018-05-18T12:11:30.167Z,15.53
2018-05-18T12:13:57.727Z,14.10
2018-05-18T12:16:26.033Z,15.53
2018-05-18T12:18:53.567Z,12.93
2018-05-18T12:21:21.093Z,16.00
2018-05-18T12:23:49.391Z,11.83
2018-05-18T12:26:17.056Z,11.17
2018-05-18T12:28:44.521Z,13.03
2018-05-18T12:31:12.077Z,11.83
2018-05-18T12:33:39.617Z,13.53
2018-05-18T12:36:07.925Z,12.53
2018-05-18T12:38:35.459Z,16.03
2018-05-18T12:41:03.771Z,11.60
2018-05-18T12:43:31.307Z,14.13
2018-05-18T12:45:58.844Z,13.93
2018-05-18T12:48:27.145Z,12.63
2018-05-18T12:50:54.673Z,10.70
2018-05-18T12:53:22.224Z,13.47
2018-05-18T12:55:49.762Z,13.63
2018-05-18T12:58:17.304Z,19.33
2018-05-18T13:00:44.829Z,14.40
2018-05-18T13:03:13.129Z,13.23
2018-05-18T13:05:40.642Z,12.77
2018-05-18T13:08:08.218Z,13.33
2018-05-18T13:10:35.728Z,13.80
2018-05-18T13:13:03.290Z,11.80
2018-05-18T13:15:30.870Z,10.50
2018-05-18T13:17:58.390Z,13.73
2018-05-18T13:20:25.920Z,11.50
2018-05-18T13:22:54.226Z,14.83
2018-05-18T13:25:21.797Z,12.93
2018-05-18T13:27:49.322Z,12.03
2018-05-18T13:30:17.608Z,13.30
2018-05-18T13:32:45.928Z,17.30
2018-05-18T13:35:13.456Z,11.87
2018-05-18T13:37:41.046Z,18.60
2018-05-18T13:40:08.578Z,11.50
2018-05-18T13:42:36.868Z,9.47
2018-05-18T13:45:04.490Z,12.37
2018-05-18T13:47:31.934Z,10.33
2018-05-18T13:49:59.469Z,15.87
2018-05-18T13:52:27.013Z,13.50
2018-05-18T13:54:54.542Z,12.20
2018-05-18T13:57:22.848Z,13.73
2018-05-18T13:59:50.414Z,13.47
2018-05-18T14:02:17.942Z,13.17
2018-05-18T14:04:45.469Z,14.77
2018-05-18T14:07:13.821Z,14.40
2018-05-18T14:09:41.380Z,13.77
2018-05-18T14:12:08.897Z,17.87
2018-05-18T14:14:37.304Z,14.63
2018-05-18T14:17:04.829Z,12.13
2018-05-18T14:19:33.128Z,12.83
2018-05-18T14:22:00.703Z,12.00
2018-05-18T14:24:28.278Z,12.63
2018-05-18T14:26:55.805Z,15.00
2018-05-18T14:29:23.367Z,12.53
2018-05-18T14:31:50.955Z,14.60
2018-05-18T14:34:19.215Z,16.67
2018-05-18T14:36:46.742Z,13.77
2018-05-18T14:39:15.031Z,11.03
2018-05-18T14:41:44.150Z,12.80
2018-05-18T14:44:11.666Z,13.23
2018-05-18T14:46:39.197Z,14.80
2018-05-18T14:49:06.737Z,14.60
2018-05-18T14:51:34.285Z,14.77
2018-05-18T14:54:01.928Z,16.57
2018-05-18T14:56:29.412Z,20.70
2018-05-18T14:58:56.943Z,13.37
2018-05-18T15:01:25.263Z,13.57
2018-05-18T15:03:52.794Z,19.23
2018-05-18T15:06:20.360Z,13.77
2018-05-18T15:08:47.886Z,14.77
2018-05-18T15:11:16.208Z,19.50
2018-05-18T15:13:43.740Z,15.67
2018-05-18T15:16:12.046Z,16.73
2018-05-18T15:18:39.558Z,13.87
2018-05-18T15:21:07.089Z,18.70
2018-05-18T15:23:34.608Z,16.37
2018-05-18T15:26:02.912Z,14.50
2018-05-18T15:28:30.466Z,15.53
2018-05-18T15:30:58.006Z,16.43
2018-05-18T15:33:26.323Z,15.33
2018-05-18T15:35:53.863Z,15.70
2018-05-18T15:38:21.379Z,15.43
2018-05-18T15:40:48.897Z,15.07
2018-05-18T15:43:16.418Z,16.87
2018-05-18T15:45:45.339Z,12.97
2018-05-18T15:48:12.883Z,14.37
2018-05-18T15:50:40.412Z,12.73
2018-05-18T15:53:08.716Z,17.17
2018-05-18T15:55:36.228Z,18.10
2018-05-18T15:58:03.852Z,17.90
2018-05-18T16:00:31.482Z,17.43
2018-05-18T16:02:58.950Z,13.67
2018-05-18T16:05:27.358Z,15.53
2018-05-18T16:07:54.891Z,12.80
2018-05-18T16:10:23.288Z,16.50
2018-05-18T16:12:50.909Z,16.47
2018-05-18T16:15:18.400Z,15.30
2018-05-18T16:17:45.986Z,17.63
2018-05-18T16:20:13.549Z,16.27
2018-05-18T16:22:41.072Z,14.90
2018-05-18T16:25:09.370Z,12.50
2018-05-18T16:27:36.910Z,19.47
2018-05-18T16:30:05.312Z,19.33
2018-05-18T16:32:32.978Z,14.20
2018-05-18T16:35:00.508Z,14.87
2018-05-18T16:37:28.806Z,16.47
2018-05-18T16:39:56.347Z,17.47
2018-05-18T16:42:24.764Z,15.40
2018-05-18T16:44:52.304Z,17.63
2018-05-18T16:47:19.834Z,17.20
2018-05-18T16:49:48.132Z,15.80
2018-05-18T16:52:16.424Z,15.47
2018-05-18T16:54:43.947Z,17.43
2018-05-18T16:57:12.366Z,14.43
2018-05-18T16:59:39.884Z,17.73
2018-05-18T17:02:08.215Z,16.97
2018-05-18T17:04:35.770Z,19.70
2018-05-18T17:07:03.311Z,13.03
2018-05-18T17:09:30.966Z,17.57
2018-05-18T17:11:59.275Z,16.60
2018-05-18T17:14:26.826Z,14.87
2018-05-18T17:16:54.365Z,14.03
2018-05-18T17:19:22.647Z,22.67
2018-05-18T17:21:50.220Z,18.60
2018-05-18T17:24:17.787Z,15.57
2018-05-18T17:26:45.344Z,16.40
2018-05-18T17:29:12.901Z,17.20
2018-05-18T17:31:40.441Z,18.40
2018-05-18T17:34:08.869Z,20.30
2018-05-18T17:36:36.409Z,14.00
2018-05-18T17:39:03.938Z,17.43
2018-05-18T17:41:32.452Z,12.60
2018-05-18T17:43:59.981Z,16.07
2018-05-18T17:46:28.376Z,17.67
2018-05-18T17:48:56.147Z,21.70
2018-05-18T17:51:23.595Z,15.10
2018-05-18T17:53:51.133Z,17.47
2018-05-18T17:56:19.455Z,19.03
2018-05-18T17:58:46.965Z,19.70
2018-05-18T18:01:14.513Z,15.63
2018-05-18T18:03:44.344Z,19.37
2018-05-18T18:06:12.641Z,18.00
2018-05-18T18:08:40.167Z,20.07
2018-05-18T18:11:07.758Z,19.50
2018-05-18T18:13:36.079Z,17.67
2018-05-18T18:16:03.606Z,15.23
2018-05-18T18:18:31.144Z,13.13
2018-05-18T18:20:59.422Z,18.30
2018-05-18T18:23:27.733Z,15.63
2018-05-18T18:25:55.277Z,13.27
2018-05-18T18:28:22.859Z,16.23
2018-05-18T18:30:50.403Z,15.50
2018-05-18T18:33:17.955Z,17.20
2018-05-18T18:35:46.342Z,18.23
2018-05-18T18:38:13.855Z,14.30
2018-05-18T18:40:41.466Z,14.97
2018-05-18T18:43:08.985Z,12.90
2018-05-18T18:45:36.508Z,14.97
2018-05-18T18:48:04.048Z,15.70
2018-05-18T18:50:31.616Z,14.93
2018-05-18T18:52:59.144Z,13.93
2018-05-18T18:55:27.440Z,20.17
2018-05-18T18:57:55.194Z,12.87
2018-05-18T19:00:22.739Z,13.83
2018-05-18T19:02:51.042Z,16.70
2018-05-18T19:05:18.718Z,15.47
2018-05-18T19:07:46.248Z,16.70
2018-05-18T19:10:14.558Z,13.30
2018-05-18T19:12:42.113Z,17.50
2018-05-18T19:15:09.676Z,13.00
2018-05-18T19:17:37.206Z,13.73
2018-05-18T19:20:05.618Z,13.40
2018-05-18T19:22:33.159Z,13.50
2018-05-18T19:25:00.691Z,13.90
2018-05-18T19:27:28.297Z,13.97
2018-05-18T19:29:55.830Z,13.93
2018-05-18T19:32:24.141Z,14.33
2018-05-18T19:34:51.675Z,14.37
2018-05-18T19:37:19.953Z,11.00
2018-05-18T19:39:47.498Z,14.83
2018-05-18T19:42:15.812Z,17.53
2018-05-18T19:44:43.334Z,17.20
2018-05-18T19:47:11.643Z,13.20
2018-05-18T19:49:39.167Z,13.33
2018-05-18T19:52:07.464Z,11.17
2018-05-18T19:54:34.993Z,13.63
2018-05-18T19:57:02.534Z,12.93
2018-05-18T19:59:30.069Z,14.30
2018-05-18T20:01:57.603Z,15.77
2018-05-18T20:04:25.997Z,11.80
2018-05-18T20:06:53.524Z,14.83
2018-05-18T20:09:21.842Z,14.00
2018-05-18T20:11:49.353Z,17.83
2018-05-18T20:14:16.962Z,13.37
2018-05-18T20:16:44.522Z,16.83
2018-05-18T20:19:12.078Z,15.30
2018-05-18T20:21:39.631Z,13.73
2018-05-18T20:24:07.157Z,16.27
2018-05-18T20:26:36.271Z,18.87
2018-05-18T20:29:04.554Z,14.00
2018-05-18T20:31:32.853Z,15.47
2018-05-18T20:34:00.516Z,11.23
2018-05-18T20:36:28.083Z,13.50
2018-05-18T20:38:55.617Z,12.57
2018-05-18T20:41:23.734Z,18.37
2018-05-18T20:43:51.265Z,17.07
2018-05-18T20:46:18.801Z,13.60
2018-05-18T20:48:47.100Z,14.37
2018-05-18T20:51:14.619Z,15.27
2018-05-18T20:53:42.919Z,15.27
2018-05-18T20:56:11.216Z,16.23
2018-05-18T20:58:38.793Z,13.30
2018-05-18T21:01:06.321Z,13.77
2018-05-18T21:03:33.866Z,17.17
2018-05-18T21:06:02.168Z,16.53
2018-05-18T21:08:29.738Z,11.07
2018-05-18T21:10:57.260Z,16.90
2018-05-18T21:13:25.571Z,16.63
2018-05-18T21:15:53.114Z,13.90
2018-05-18T21:18:21.403Z,16.20
2018-05-18T21:20:48.921Z,12.37
2018-05-18T21:23:16.447Z,14.67
2018-05-18T21:25:43.963Z,16.13
2018-05-18T21:28:12.239Z,12.63
2018-05-18T21:30:40.535Z,12.50
2018-05-18T21:33:08.051Z,15.50
2018-05-18T21:35:35.571Z,14.17
2018-05-18T21:38:03.098Z,12.80
2018-05-18T21:40:31.389Z,14.37
2018-05-18T21:42:58.909Z,12.83
2018-05-18T21:45:26.445Z,12.87
2018-05-18T21:47:54.071Z,15.30
2018-05-18T21:50:21.596Z,15.60
2018-05-18T21:52:49.192Z,12.70
2018-05-18T21:55:16.706Z,14.23
2018-05-18T21:57:44.227Z,19.00
2018-05-18T22:00:11.779Z,14.67
2018-05-18T22:02:39.335Z,13.80
2018-05-18T22:05:06.898Z,11.43
2018-05-18T22:07:34.432Z,11.57
2018-05-18T22:10:02.724Z,14.57
2018-05-18T22:12:30.244Z,14.73
2018-05-18T22:14:57.807Z,12.20
2018-05-18T22:17:25.328Z,15.70
2018-05-18T22:19:52.844Z,14.57
2018-05-18T22:22:21.140Z,17.57
2018-05-18T22:24:48.670Z,20.83
2018-05-18T22:27:16.184Z,16.03
2018-05-18T22:29:43.727Z,15.17
2018-05-18T22:32:11.250Z,12.23
2018-05-18T22:34:39.574Z,11.43
2018-05-18T22:37:07.110Z,12.17
2018-05-18T22:39:34.622Z,17.93
2018-05-18T22:42:02.147Z,14.77
2018-05-18T22:44:29.674Z,12.37
2018-05-18T22:46:57.984Z,15.37
2018-05-18T22:49:25.546Z,19.13
2018-05-18T22:51:53.096Z,13.80
2018-05-18T22:54:20.612Z,10.17
2018-05-18T22:56:48.127Z,15.77
2018-05-18T22:59:15.647Z,14.77
2018-05-18T23:01:43.925Z,17.00
2018-05-18T23:04:12.203Z,13.73
2018-05-18T23:06:40.484Z,14.40
2018-05-18T23:09:08.757Z,12.83
2018-05-18T23:11:37.040Z,13.93
2018-05-18T23:14:05.330Z,11.27
2018-05-18T23:16:32.841Z,11.77
2018-05-18T23:19:00.450Z,18.30
2018-05-18T23:21:28.027Z,15.80
2018-05-18T23:23:55.555Z,12.63
2018-05-18T23:26:23.857Z,22.77
2018-05-18T23:28:51.375Z,11.50
2018-05-18T23:31:18.980Z,16.17
2018-05-18T23:33:46.539Z,16.37
2018-05-18T23:36:14.091Z,13.63
2018-05-18T23:38:41.602Z,17.33
2018-05-18T23:41:09.201Z,16.20
2018-05-18T23:43:37.499Z,15.23
2018-05-18T23:46:05.007Z,17.83
2018-05-18T23:48:32.520Z,15.43
2018-05-18T23:51:00.054Z,12.93
2018-05-18T23:53:28.337Z,17.77
2018-05-18T23:55:55.846Z,18.10
2018-05-18T23:58:23.370Z,17.47
